Time;durP1;ratioP1;P1;durP2;ratioP2;P2;SDS_P1;SDS_P2;PMS_P1;PMS_P2;Temp;Humidity;BMP_temperature;BMP_pressure;BME280_temperature;BME280_humidity;BME280_pressure;Samples;Min_cycle;Max_cycle;Signal;HPM_P1;HPM_P2
2021/11/10 00:00:46;;;;;;;13.38;11.07;;;23.40;38.10;;;;;;5020005;28;20498;-53
2021/11/10 00:03:13;;;;;;;14.30;11.55;;;23.40;38.10;;;;;;5022690;28;20060;-55
2021/11/10 00:05:41;;;;;;;14.90;11.32;;;23.40;38.10;;;;;;5021604;28;20088;-56
2021/11/10 00:08:09;;;;;;;16.42;11.60;;;23.40;38.20;;;;;;5017961;28;20045;-54
2021/11/10 00:10:36;;;;;;;14.98;12.25;;;23.30;38.10;;;;;;5012587;28;20104;-55
2021/11/10 00:13:20;;;;;;;16.80;11.63;;;23.30;38.10;;;;;;5022569;28;20044;-55
2021/11/10 00:15:49;;;;;;;14.45;11.43;;;23.30;38.20;;;;;;5022456;28;20127;-56
2021/11/10 00:18:17;;;;;;;13.57;11.23;;;23.30;38.20;;;;;;5021204;28;20407;-55
2021/11/10 00:20:45;;;;;;;18.33;11.60;;;23.30;38.30;;;;;;5016872;28;20394;-56
2021/11/10 00:23:13;;;;;;;16.35;12.07;;;23.20;38.20;;;;;;5021962;28;20432;-56
2021/11/10 00:25:40;;;;;;;13.30;11.15;;;23.20;38.20;;;;;;5021541;28;20140;-56
2021/11/10 00:28:07;;;;;;;14.98;11.32;;;23.20;38.30;;;;;;5016765;28;20537;-56
2021/11/10 00:30:35;;;;;;;16.45;11.60;;;23.20;38.30;;;;;;5014883;28;20052;-57
2021/11/10 00:33:02;;;;;;;15.55;11.27;;;23.20;38.20;;;;;;5022802;28;20239;-55
2021/11/10 00:35:30;;;;;;;15.02;12.10;;;23.20;38.20;;;;;;5021321;28;20049;-56
2021/11/10 00:37:57;;;;;;;18.05;11.85;;;23.20;38.20;;;;;;5016677;28;20114;-56
2021/11/10 00:40:24;;;;;;;15.13;10.98;;;23.20;38.10;;;;;;5031069;28;20356;-55
2021/11/10 00:42:51;;;;;;;14.32;11.70;;;23.20;38.20;;;;;;5042494;28;20064;-54
2021/11/10 00:45:18;;;;;;;14.95;11.65;;;23.20;38.20;;;;;;5041792;28;20497;-55
2021/11/10 00:47:46;;;;;;;15.38;11.93;;;23.20;38.20;;;;;;5041167;28;20780;-55
2021/11/10 00:50:14;;;;;;;13.40;10.45;;;23.20;38.10;;;;;;5016939;28;20080;-55
2021/11/10 00:52:41;;;;;;;14.35;10.82;;;23.20;38.10;;;;;;5020841;28;20134;-54
2021/11/10 00:55:08;;;;;;;13.43;10.55;;;23.20;38.10;;;;;;5021975;28;20168;-55
2021/11/10 00:57:35;;;;;;;14.77;11.52;;;23.20;38.10;;;;;;5021983;28;20465;-55
2021/11/10 01:00:05;;;;;;;15.73;12.07;;;23.20;38.10;;;;;;5022325;28;20434;-54
2021/11/10 01:02:33;;;;;;;15.63;10.98;;;23.20;38.00;;;;;;5042049;28;20062;-55
2021/11/10 01:05:02;;;;;;;14.25;10.70;;;23.30;38.10;;;;;;5041338;28;20055;-55
2021/11/10 01:07:29;;;;;;;15.02;11.15;;;23.20;38.00;;;;;;5041554;28;20574;-56
2021/11/10 01:10:02;;;;;;;13.40;10.82;;;23.30;38.10;;;;;;5017521;28;20056;-54
2021/11/10 01:12:29;;;;;;;15.48;11.15;;;23.20;38.00;;;;;;5021107;28;20616;-54
2021/11/10 01:14:57;;;;;;;13.43;10.63;;;23.20;38.00;;;;;;5021815;28;20407;-56
2021/11/10 01:17:24;;;;;;;13.60;10.25;;;23.30;38.00;;;;;;5021058;28;20194;-56
2021/11/10 01:19:52;;;;;;;13.07;10.23;;;23.30;38.00;;;;;;5015308;28;20313;-55
2021/11/10 01:22:19;;;;;;;15.23;10.73;;;23.30;38.00;;;;;;5044930;28;20201;-55
2021/11/10 01:24:46;;;;;;;14.65;10.27;;;23.20;38.00;;;;;;5045033;28;20094;-55
2021/11/10 01:27:14;;;;;;;13.77;11.02;;;23.20;38.00;;;;;;5044915;28;20052;-55
2021/11/10 01:29:42;;;;;;;14.38;10.77;;;23.20;38.00;;;;;;5027858;28;20140;-55
2021/11/10 01:32:09;;;;;;;13.55;9.80;;;23.20;38.10;;;;;;5025759;28;20104;-57
2021/11/10 01:34:37;;;;;;;13.18;9.85;;;23.20;38.10;;;;;;5023460;28;20581;-56
2021/11/10 01:37:04;;;;;;;16.20;11.35;;;23.10;38.10;;;;;;5023391;28;20456;-55
2021/11/10 01:39:32;;;;;;;13.00;10.20;;;23.10;38.10;;;;;;5017288;28;20084;-56
2021/11/10 01:42:04;;;;;;;13.13;10.25;;;23.10;38.10;;;;;;5043342;28;20440;-55
2021/11/10 01:44:35;;;;;;;12.60;10.15;;;23.10;38.10;;;;;;5044115;28;20469;-53
2021/11/10 01:47:08;;;;;;;15.80;11.82;;;23.10;38.10;;;;;;5034781;28;20055;-56
2021/11/10 01:49:37;;;;;;;14.48;10.05;;;23.10;38.10;;;;;;5021348;28;20217;-56
2021/11/10 01:52:07;;;;;;;14.98;10.82;;;23.10;38.20;;;;;;5043730;28;20048;-55
2021/11/10 01:54:35;;;;;;;15.20;10.43;;;23.00;38.10;;;;;;5043188;28;20113;-54
2021/11/10 01:57:05;;;;;;;13.77;10.65;;;23.10;38.10;;;;;;5043315;28;20060;-56
2021/11/10 01:59:42;;;;;;;13.43;10.20;;;23.10;38.10;;;;;;5017000;28;20049;-55
2021/11/10 02:02:21;;;;;;;13.35;10.48;;;23.10;38.10;;;;;;5023652;28;20196;-55
2021/11/10 02:04:51;;;;;;;14.07;10.60;;;23.10;38.10;;;;;;5021773;28;20533;-58
2021/11/10 02:07:19;;;;;;;12.95;9.85;;;23.10;38.10;;;;;;5022774;28;20084;-56
2021/11/10 02:09:49;;;;;;;13.52;10.10;;;23.10;38.10;;;;;;5017832;28;20213;-56
2021/11/10 02:12:17;;;;;;;13.95;10.02;;;23.10;38.10;;;;;;5021357;28;20071;-55
2021/11/10 02:14:45;;;;;;;13.38;9.75;;;23.10;38.10;;;;;;5023265;28;20415;-56
2021/11/10 02:17:19;;;;;;;11.85;9.55;;;23.10;38.10;;;;;;5022583;28;20300;-55
2021/11/10 02:19:47;;;;;;;13.30;9.68;;;23.00;38.00;;;;;;5011729;28;20671;-54
2021/11/10 02:22:17;;;;;;;13.05;9.57;;;23.00;38.00;;;;;;5022990;28;20620;-56
2021/11/10 02:24:45;;;;;;;12.75;9.52;;;23.10;38.60;;;;;;5022900;28;20135;-56
2021/11/10 02:27:19;;;;;;;12.25;9.23;;;23.10;38.00;;;;;;5022658;28;20119;-57
2021/11/10 02:29:48;;;;;;;12.77;9.18;;;23.10;38.00;;;;;;5020564;28;20148;-55
2021/11/10 02:32:16;;;;;;;13.15;10.25;;;23.10;38.00;;;;;;5023030;28;20057;-55
2021/11/10 02:34:45;;;;;;;13.70;9.55;;;23.10;37.90;;;;;;5022510;28;20056;-57
2021/11/10 02:37:15;;;;;;;10.57;8.90;;;23.10;38.00;;;;;;5022642;28;20052;-54
2021/11/10 02:39:42;;;;;;;11.73;8.70;;;23.10;38.00;;;;;;5017274;28;20060;-55
2021/11/10 02:42:09;;;;;;;10.95;8.90;;;23.10;38.00;;;;;;5022232;28;20410;-54
2021/11/10 02:44:37;;;;;;;14.10;9.60;;;23.10;38.00;;;;;;5021785;28;20148;-55
2021/11/10 02:47:05;;;;;;;12.50;8.95;;;23.00;37.90;;;;;;5022095;28;20186;-57
2021/11/10 02:49:33;;;;;;;11.68;8.82;;;23.10;38.00;;;;;;5016663;28;20087;-56
2021/11/10 02:52:06;;;;;;;10.75;8.90;;;23.00;38.00;;;;;;5022693;28;20065;-55
2021/11/10 02:54:35;;;;;;;11.35;8.85;;;23.00;37.90;;;;;;5021854;28;20080;-55
2021/11/10 02:57:05;;;;;;;11.43;8.55;;;23.00;37.90;;;;;;5022304;28;20106;-56
2021/11/10 02:59:34;;;;;;;12.73;9.27;;;23.00;38.00;;;;;;5011285;28;20124;-56
2021/11/10 03:02:03;;;;;;;10.38;8.85;;;23.00;37.90;;;;;;5022642;28;20065;-55
2021/11/10 03:04:36;;;;;;;13.20;9.32;;;23.00;37.90;;;;;;5021637;28;20239;-56
2021/11/10 03:07:04;;;;;;;13.00;8.90;;;23.00;38.00;;;;;;5021950;28;20310;-53
2021/11/10 03:09:34;;;;;;;12.05;8.48;;;23.00;38.00;;;;;;5011109;28;20415;-54
2021/11/10 03:12:05;;;;;;;12.02;8.70;;;23.00;37.90;;;;;;5021694;28;20457;-58
2021/11/10 03:14:35;;;;;;;10.93;8.65;;;23.00;37.80;;;;;;5021955;28;20156;-56
2021/11/10 03:17:08;;;;;;;13.93;8.95;;;23.00;37.80;;;;;;5021648;28;20514;-58
2021/11/10 03:19:36;;;;;;;9.80;7.80;;;23.00;37.70;;;;;;5013819;28;20138;-55
2021/11/10 03:22:06;;;;;;;10.25;8.27;;;23.00;37.70;;;;;;5022283;28;20525;-56
2021/11/10 03:24:34;;;;;;;12.67;8.47;;;23.00;37.60;;;;;;5021789;28;20077;-56
2021/11/10 03:27:02;;;;;;;11.82;8.07;;;23.10;37.70;;;;;;5022088;28;20147;-57
2021/11/10 03:29:32;;;;;;;11.45;8.27;;;23.10;37.60;;;;;;5012953;28;20048;-57
2021/11/10 03:32:01;;;;;;;11.40;8.30;;;23.10;37.50;;;;;;5022419;28;20106;-55
2021/11/10 03:34:28;;;;;;;10.68;8.50;;;23.10;37.50;;;;;;5019875;28;20076;-55
2021/11/10 03:36:55;;;;;;;10.95;8.85;;;23.10;37.60;;;;;;5021361;28;20146;-55
2021/11/10 03:39:26;;;;;;;11.40;8.75;;;23.20;37.50;;;;;;5018057;28;20800;-58
2021/11/10 03:41:54;;;;;;;11.15;8.13;;;23.20;37.40;;;;;;5021751;28;20053;-58
2021/11/10 03:44:22;;;;;;;8.73;7.80;;;23.20;37.40;;;;;;5020268;28;20601;-58
2021/11/10 03:46:49;;;;;;;11.02;8.45;;;23.20;37.40;;;;;;5022114;28;20057;-56
2021/11/10 03:49:16;;;;;;;10.23;7.88;;;23.20;37.40;;;;;;5017139;28;20052;-57
2021/11/10 03:51:44;;;;;;;11.05;8.60;;;23.20;37.40;;;;;;5001760;28;20085;-56
2021/11/10 03:54:11;;;;;;;11.38;7.82;;;23.20;37.40;;;;;;5001082;28;20203;-56
2021/11/10 03:56:39;;;;;;;11.77;8.20;;;23.20;37.40;;;;;;5001943;28;20158;-56
2021/11/10 03:59:06;;;;;;;9.02;7.30;;;23.20;37.30;;;;;;5008023;28;20053;-56
2021/11/10 04:01:34;;;;;;;10.07;7.55;;;23.20;37.30;;;;;;5021092;28;20111;-55
2021/11/10 04:04:01;;;;;;;14.90;8.77;;;23.20;37.30;;;;;;5021226;28;20053;-57
2021/11/10 04:06:30;;;;;;;8.65;7.13;;;23.20;37.30;;;;;;5019687;28;20118;-55
2021/11/10 04:08:57;;;;;;;9.57;7.40;;;23.20;37.30;;;;;;5014214;28;20136;-56
2021/11/10 04:11:25;;;;;;;10.07;7.90;;;23.20;37.30;;;;;;5017207;28;21144;-55
2021/11/10 04:13:52;;;;;;;9.15;7.28;;;23.20;37.30;;;;;;5020600;28;20629;-55
2021/11/10 04:16:20;;;;;;;8.13;7.07;;;23.20;37.30;;;;;;5019115;28;20388;-55
2021/11/10 04:18:50;;;;;;;9.68;7.40;;;23.20;37.30;;;;;;5015947;28;20372;-57
2021/11/10 04:21:19;;;;;;;10.27;7.22;;;23.20;37.30;;;;;;5021862;28;20079;-55
2021/11/10 04:23:48;;;;;;;9.05;7.35;;;23.20;37.30;;;;;;5020667;28;20064;-56
2021/11/10 04:26:16;;;;;;;9.50;7.40;;;23.20;37.30;;;;;;5020980;28;20053;-55
2021/11/10 04:28:43;;;;;;;9.15;7.18;;;23.20;37.30;;;;;;5017746;28;20044;-55
2021/11/10 04:31:10;;;;;;;9.60;7.38;;;23.20;37.30;;;;;;4999016;28;20144;-56
2021/11/10 04:33:38;;;;;;;8.98;7.47;;;23.20;37.30;;;;;;5021270;28;20075;-55
2021/11/10 04:36:05;;;;;;;9.35;7.18;;;23.20;37.30;;;;;;5020651;28;20599;-55
2021/11/10 04:38:33;;;;;;;8.23;7.07;;;23.20;37.30;;;;;;5017119;28;20060;-55
2021/11/10 04:41:00;;;;;;;8.27;6.57;;;23.20;37.30;;;;;;5014387;28;20222;-55
2021/11/10 04:43:27;;;;;;;9.57;7.22;;;23.10;37.20;;;;;;5019426;28;20056;-55
2021/11/10 04:46:05;;;;;;;9.85;7.93;;;23.10;37.20;;;;;;5004035;28;20135;-55
2021/11/10 04:48:35;;;;;;;9.23;7.68;;;23.10;37.20;;;;;;5015134;28;20139;-55
2021/11/10 04:51:05;;;;;;;10.15;7.22;;;23.10;37.20;;;;;;5028079;28;20052;-55
2021/11/10 04:53:36;;;;;;;8.65;7.10;;;23.10;37.20;;;;;;5024981;28;20111;-54
2021/11/10 04:56:04;;;;;;;7.88;6.30;;;23.10;37.20;;;;;;5026204;28;20119;-55
2021/11/10 04:58:33;;;;;;;9.15;7.00;;;23.10;37.70;;;;;;5013175;28;20568;-56
2021/11/10 05:01:00;;;;;;;8.32;6.63;;;23.20;37.20;;;;;;5022389;28;20214;-55
2021/11/10 05:03:28;;;;;;;8.93;7.00;;;23.20;37.10;;;;;;5024288;28;20045;-55
2021/11/10 05:05:55;;;;;;;10.35;6.68;;;23.20;37.10;;;;;;5011322;28;20289;-58
2021/11/10 05:08:22;;;;;;;9.05;7.18;;;23.20;37.00;;;;;;5036252;28;20147;-55
2021/11/10 05:10:49;;;;;;;8.00;6.47;;;23.20;37.10;;;;;;5030644;28;20078;-55
2021/11/10 05:13:16;;;;;;;8.48;6.50;;;23.20;37.00;;;;;;5044112;28;20095;-54
2021/11/10 05:15:43;;;;;;;10.77;7.15;;;23.20;37.00;;;;;;5043503;28;20571;-55
2021/11/10 05:18:11;;;;;;;8.10;6.43;;;23.20;37.00;;;;;;5038199;28;20053;-56
2021/11/10 05:20:38;;;;;;;8.85;6.82;;;23.20;37.00;;;;;;5024796;28;20140;-53
2021/11/10 05:23:05;;;;;;;9.68;6.80;;;23.20;37.00;;;;;;5024242;28;20133;-55
2021/11/10 05:25:32;;;;;;;8.02;7.13;;;23.20;37.00;;;;;;5023883;28;20124;-55
2021/11/10 05:27:59;;;;;;;10.30;6.05;;;23.20;37.00;;;;;;5018848;28;20053;-55
2021/11/10 05:30:27;;;;;;;8.85;6.68;;;23.20;37.00;;;;;;5017363;28;20532;-54
2021/11/10 05:32:54;;;;;;;8.00;6.15;;;23.20;37.00;;;;;;5023762;28;20676;-55
2021/11/10 05:35:21;;;;;;;8.80;6.53;;;23.20;37.00;;;;;;5021515;28;20045;-55
2021/11/10 05:37:48;;;;;;;7.88;6.20;;;23.20;37.00;;;;;;5021849;28;20276;-54
2021/11/10 05:40:16;;;;;;;9.10;6.65;;;23.20;37.00;;;;;;5014228;28;20277;-55
2021/11/10 05:42:43;;;;;;;7.82;6.13;;;23.20;37.00;;;;;;5013265;28;20156;-55
2021/11/10 05:45:10;;;;;;;7.82;5.80;;;23.20;37.00;;;;;;5016137;28;20256;-54
2021/11/10 05:47:38;;;;;;;7.38;5.85;;;23.20;37.00;;;;;;5022322;28;20084;-54
2021/11/10 05:50:06;;;;;;;6.85;5.85;;;23.20;37.00;;;;;;5010316;28;20152;-53
2021/11/10 05:52:34;;;;;;;6.20;5.53;;;23.20;37.00;;;;;;5013042;28;20057;-55
2021/11/10 05:55:03;;;;;;;7.20;5.72;;;23.20;37.00;;;;;;5018826;28;20045;-55
2021/11/10 05:57:31;;;;;;;7.63;6.18;;;23.20;36.90;;;;;;5019748;28;20049;-54
2021/11/10 05:59:58;;;;;;;6.68;5.65;;;23.20;36.90;;;;;;5012736;28;20107;-55
2021/11/10 06:02:25;;;;;;;7.53;5.93;;;23.20;36.90;;;;;;5026988;28;20417;-55
2021/11/10 06:04:53;;;;;;;6.32;5.22;;;23.20;37.00;;;;;;5031652;28;20117;-53
2021/11/10 06:07:20;;;;;;;7.53;5.63;;;23.20;36.90;;;;;;5019526;28;20053;-55
2021/11/10 06:09:47;;;;;;;7.50;5.82;;;23.20;36.90;;;;;;5011823;28;20106;-55
2021/11/10 06:12:14;;;;;;;7.90;6.13;;;23.20;36.90;;;;;;5013499;28;20160;-56
2021/11/10 06:14:41;;;;;;;7.47;5.53;;;23.20;36.80;;;;;;5029146;28;20731;-56
2021/11/10 06:17:09;;;;;;;6.63;5.43;;;23.20;36.70;;;;;;5025330;28;20057;-56
2021/11/10 06:19:36;;;;;;;7.15;5.30;;;23.20;36.70;;;;;;5006613;28;20095;-55
2021/11/10 06:22:04;;;;;;;6.75;6.10;;;23.20;36.60;;;;;;5014509;28;20064;-57
2021/11/10 06:24:31;;;;;;;6.15;5.05;;;23.30;36.50;;;;;;5016184;28;20079;-55
2021/11/10 06:26:58;;;;;;;5.13;4.60;;;23.30;36.30;;;;;;5018201;28;20111;-57
2021/11/10 06:29:26;;;;;;;6.20;4.93;;;23.30;36.20;;;;;;5012073;28;20632;-56
2021/11/10 06:31:53;;;;;;;6.63;4.80;;;23.40;36.30;;;;;;5015606;28;20629;-58
2021/11/10 06:34:20;;;;;;;6.45;4.65;;;23.40;36.10;;;;;;5017471;28;20044;-58
2021/11/10 06:36:47;;;;;;;7.72;4.97;;;23.50;36.10;;;;;;5016396;28;20128;-56
2021/11/10 06:39:15;;;;;;;6.82;5.68;;;23.60;36.00;;;;;;5001218;28;20136;-55
2021/11/10 06:41:42;;;;;;;5.93;5.03;;;23.60;35.90;;;;;;5015652;28;20049;-55
2021/11/10 06:44:09;;;;;;;6.03;5.13;;;23.60;35.70;;;;;;5018637;28;20045;-56
2021/11/10 06:46:37;;;;;;;7.13;4.82;;;23.70;35.50;;;;;;5017084;28;20053;-57
2021/11/10 06:49:05;;;;;;;6.82;4.38;;;23.80;35.30;;;;;;5010670;28;22210;-57
2021/11/10 06:51:32;;;;;;;6.65;5.07;;;23.80;35.40;;;;;;5015746;28;20073;-56
2021/11/10 06:54:00;;;;;;;6.32;4.80;;;23.90;35.40;;;;;;5016412;28;20497;-55
2021/11/10 06:56:27;;;;;;;6.10;5.50;;;23.90;35.30;;;;;;5014032;28;20085;-57
2021/11/10 06:58:54;;;;;;;6.18;5.00;;;24.00;35.40;;;;;;4999217;28;20497;-56
2021/11/10 07:01:22;;;;;;;6.30;5.25;;;24.00;35.50;;;;;;5008675;28;20052;-56
2021/11/10 07:03:49;;;;;;;5.78;5.03;;;24.00;35.60;;;;;;5014339;28;20041;-56
2021/11/10 07:06:16;;;;;;;6.15;5.15;;;24.00;35.60;;;;;;5015364;28;20045;-56
2021/11/10 07:08:43;;;;;;;6.00;5.20;;;23.90;35.50;;;;;;5011343;28;20100;-55
2021/11/10 07:11:11;;;;;;;7.63;5.28;;;23.90;35.60;;;;;;5005608;28;20049;-52
2021/11/10 07:13:38;;;;;;;7.32;5.45;;;23.90;35.80;;;;;;5014208;28;20502;-54
2021/11/10 07:16:07;;;;;;;5.78;5.18;;;23.90;35.90;;;;;;5018625;28;20041;-57
2021/11/10 07:18:34;;;;;;;5.70;5.20;;;23.90;36.00;;;;;;5007548;28;20509;-55
2021/11/10 07:21:01;;;;;;;5.95;5.35;;;24.00;36.80;;;;;;5005761;28;20063;-56
2021/11/10 07:23:29;;;;;;;6.38;5.43;;;24.00;36.20;;;;;;5015587;28;20894;-55
2021/11/10 07:25:56;;;;;;;7.50;6.18;;;24.00;36.20;;;;;;5015344;28;20053;-54
2021/11/10 07:28:23;;;;;;;5.55;5.05;;;24.10;36.20;;;;;;5007525;28;20049;-55
2021/11/10 07:30:50;;;;;;;7.88;5.50;;;24.10;36.10;;;;;;5007738;28;20137;-52
2021/11/10 07:33:18;;;;;;;9.77;5.82;;;24.10;36.10;;;;;;5018492;28;20056;-53
2021/11/10 07:35:45;;;;;;;6.80;5.30;;;24.10;36.10;;;;;;5016222;28;20049;-54
2021/11/10 07:38:23;;;;;;;8.07;6.18;;;24.20;36.10;;;;;;5009915;28;20134;-56
2021/11/10 07:40:53;;;;;;;10.13;5.97;;;24.20;36.10;;;;;;5004411;28;20061;-54
2021/11/10 07:43:23;;;;;;;5.82;5.22;;;24.20;36.10;;;;;;5013800;28;20473;-53
2021/11/10 07:45:54;;;;;;;6.15;5.55;;;24.30;36.20;;;;;;5011772;28;20135;-54
2021/11/10 07:48:22;;;;;;;5.95;5.35;;;24.30;36.40;;;;;;5015352;28;20135;-56
2021/11/10 07:50:49;;;;;;;7.72;5.88;;;24.30;36.50;;;;;;5004629;28;20053;-56
2021/11/10 07:53:16;;;;;;;6.60;5.30;;;24.30;36.40;;;;;;5014480;28;20438;-56
2021/11/10 07:55:44;;;;;;;5.90;4.90;;;24.30;36.30;;;;;;5016168;28;20481;-56
2021/11/10 07:58:13;;;;;;;8.45;5.30;;;24.40;36.30;;;;;;5008400;28;20079;-54
2021/11/10 08:00:42;;;;;;;5.70;4.97;;;24.30;36.10;;;;;;5006986;28;20107;-56
2021/11/10 08:03:10;;;;;;;9.07;5.70;;;24.40;36.10;;;;;;5009837;28;20049;-57
2021/11/10 08:05:37;;;;;;;5.53;4.88;;;24.40;36.10;;;;;;5013541;28;20126;-58
2021/11/10 08:08:04;;;;;;;6.13;5.53;;;24.40;36.00;;;;;;5009506;28;20132;-58
2021/11/10 08:10:50;;;;;;;7.00;5.82;;;24.50;36.10;;;;;;5006781;28;20056;-58
2021/11/10 08:13:17;;;;;;;6.47;5.60;;;24.50;36.10;;;;;;5016120;28;20053;-57
2021/11/10 08:15:44;;;;;;;6.22;5.63;;;24.50;36.10;;;;;;5016501;28;20808;-58
2021/11/10 08:18:12;;;;;;;6.63;5.93;;;24.50;36.10;;;;;;5009037;28;20602;-57
2021/11/10 08:20:39;;;;;;;8.70;5.95;;;24.60;36.10;;;;;;5006471;28;20077;-58
2021/11/10 08:23:06;;;;;;;6.75;5.72;;;24.60;36.10;;;;;;5013883;28;20049;-59
2021/11/10 08:25:33;;;;;;;7.43;5.50;;;24.70;36.20;;;;;;5016695;28;20126;-57
2021/11/10 08:28:01;;;;;;;6.20;5.60;;;24.60;36.10;;;;;;5007814;28;22068;-58
2021/11/10 08:30:28;;;;;;;6.50;5.55;;;24.70;36.10;;;;;;5001171;28;20131;-59
2021/11/10 08:32:55;;;;;;;7.13;6.43;;;24.70;36.00;;;;;;5023844;28;20084;-58
2021/11/10 08:35:23;;;;;;;7.15;5.95;;;24.70;35.90;;;;;;5020779;28;20127;-58
2021/11/10 08:37:56;;;;;;;7.47;6.38;;;24.70;35.90;;;;;;5016341;28;20044;-58
2021/11/10 08:40:23;;;;;;;7.63;6.28;;;24.70;35.90;;;;;;5003386;28;20072;-58
2021/11/10 08:42:52;;;;;;;7.78;5.88;;;24.70;35.80;;;;;;5020116;28;20138;-57
2021/11/10 08:45:26;;;;;;;6.65;6.03;;;24.70;35.70;;;;;;5019636;28;20049;-58
2021/11/10 08:47:58;;;;;;;7.22;6.15;;;24.80;35.70;;;;;;5015724;28;20053;-56
2021/11/10 08:50:27;;;;;;;6.57;5.70;;;24.80;35.80;;;;;;4993148;28;20496;-57
2021/11/10 08:52:56;;;;;;;9.35;6.13;;;24.80;36.10;;;;;;5018497;28;20616;-57
2021/11/10 08:55:24;;;;;;;8.52;6.05;;;24.80;36.00;;;;;;5019458;28;20593;-57
2021/11/10 08:57:52;;;;;;;7.03;5.75;;;24.80;35.70;;;;;;5017221;28;20056;-58
2021/11/10 09:00:30;;;;;;;7.35;5.43;;;24.90;35.60;;;;;;4999774;28;20080;-57
2021/11/10 09:02:59;;;;;;;7.25;6.07;;;24.90;35.70;;;;;;5017891;28;20102;-55
2021/11/10 09:05:26;;;;;;;5.90;5.30;;;24.90;35.70;;;;;;5011064;28;20135;-55
2021/11/10 09:07:54;;;;;;;6.32;5.75;;;24.90;35.80;;;;;;5014583;28;20053;-54
2021/11/10 09:10:22;;;;;;;6.97;5.88;;;25.00;36.00;;;;;;5006793;28;20041;-56
2021/11/10 09:12:50;;;;;;;7.18;5.82;;;25.00;35.80;;;;;;5013413;28;20506;-58
2021/11/10 09:15:19;;;;;;;6.15;5.60;;;25.00;35.80;;;;;;5013821;28;20072;-56
2021/11/10 09:17:47;;;;;;;7.60;5.20;;;25.00;35.80;;;;;;5016699;28;20079;-57
2021/11/10 09:20:19;;;;;;;6.72;5.50;;;25.10;35.80;;;;;;5000791;28;20053;-56
2021/11/10 09:22:54;;;;;;;5.95;5.35;;;25.10;35.70;;;;;;5015664;28;20494;-56
2021/11/10 09:25:23;;;;;;;7.40;5.47;;;25.10;35.60;;;;;;5012355;28;20075;-55
2021/11/10 09:27:50;;;;;;;6.63;5.18;;;25.10;35.50;;;;;;5017273;28;20141;-53
2021/11/10 09:30:20;;;;;;;6.65;5.43;;;25.10;35.60;;;;;;5004736;28;20076;-55
2021/11/10 09:32:49;;;;;;;5.88;5.20;;;25.10;35.70;;;;;;5013663;28;20459;-55
2021/11/10 09:35:18;;;;;;;6.28;5.68;;;25.10;35.80;;;;;;5015611;28;20992;-58
2021/11/10 09:37:49;;;;;;;5.68;5.15;;;25.10;36.00;;;;;;5014242;28;20464;-59
2021/11/10 09:40:18;;;;;;;6.70;5.70;;;25.10;36.20;;;;;;5001528;28;21742;-56
2021/11/10 09:42:46;;;;;;;7.63;4.70;;;25.10;36.40;;;;;;5013368;28;20098;-53
2021/11/10 09:45:18;;;;;;;6.97;5.55;;;25.20;36.40;;;;;;5014705;28;20136;-57
2021/11/10 09:47:46;;;;;;;6.75;5.55;;;25.20;36.30;;;;;;5014744;28;20140;-54
2021/11/10 09:50:17;;;;;;;4.88;4.40;;;25.20;36.20;;;;;;5003454;28;20144;-55
2021/11/10 09:52:45;;;;;;;5.53;5.03;;;25.20;36.20;;;;;;5015046;28;20057;-55
2021/11/10 09:55:17;;;;;;;5.10;4.63;;;25.30;36.40;;;;;;5015033;28;20053;-49
2021/11/10 09:57:46;;;;;;;6.20;5.15;;;25.30;36.20;;;;;;5014107;28;20143;-50
2021/11/10 10:00:18;;;;;;;6.35;5.20;;;25.30;36.20;;;;;;5008471;28;20415;-53
2021/11/10 10:02:48;;;;;;;5.60;5.05;;;25.30;36.20;;;;;;5016535;28;20049;-56
2021/11/10 10:05:16;;;;;;;5.35;4.85;;;25.40;36.20;;;;;;5017720;28;20053;-56
2021/11/10 10:07:49;;;;;;;5.30;4.80;;;25.40;36.20;;;;;;5012495;28;20053;-57
2021/11/10 10:10:16;;;;;;;5.72;5.05;;;25.40;36.00;;;;;;5004428;28;20110;-57
2021/11/10 10:12:46;;;;;;;5.00;4.53;;;25.40;36.00;;;;;;5016529;28;20545;-57
2021/11/10 10:15:13;;;;;;;6.18;4.35;;;25.40;36.00;;;;;;5014845;28;20057;-57
2021/11/10 10:17:43;;;;;;;7.65;4.80;;;25.40;36.00;;;;;;5019532;28;20045;-55
2021/11/10 10:20:32;;;;;;;4.95;4.45;;;25.40;36.00;;;;;;5002787;28;20104;-58
2021/11/10 10:23:04;;;;;;;4.50;4.10;;;25.40;35.90;;;;;;5015039;28;20555;-57
2021/11/10 10:25:48;;;;;;;4.82;4.32;;;25.40;35.80;;;;;;5014084;28;20498;-57
2021/11/10 10:28:19;;;;;;;5.45;4.38;;;25.40;35.60;;;;;;5010038;28;20063;-57
2021/11/10 10:30:49;;;;;;;5.20;4.65;;;25.40;35.50;;;;;;5007353;28;20053;-57
2021/11/10 10:33:26;;;;;;;4.82;4.32;;;25.40;35.40;;;;;;5014975;28;20049;-56
2021/11/10 10:35:56;;;;;;;4.72;4.30;;;25.30;35.20;;;;;;5014712;28;20049;-57
2021/11/10 10:38:25;;;;;;;;;;;25.30;35.40;;;;;;5010118;28;20107;-58
2021/11/10 10:40:56;;;;;;;6.13;4.40;;;25.30;35.50;;;;;;5007489;28;20366;-57
2021/11/10 10:43:24;;;;;;;8.05;4.40;;;25.30;35.60;;;;;;5021107;28;20059;-56
2021/11/10 10:45:54;;;;;;;5.32;4.82;;;25.30;35.60;;;;;;5019652;28;20044;-55
2021/11/10 10:48:25;;;;;;;4.70;4.30;;;25.30;35.60;;;;;;5014298;28;20511;-57
2021/11/10 10:50:56;;;;;;;5.47;4.13;;;25.30;35.60;;;;;;5008780;28;20045;-56
2021/11/10 10:53:44;;;;;;;5.57;4.47;;;25.30;35.60;;;;;;5018280;28;20553;-57
2021/11/10 10:56:17;;;;;;;4.43;4.03;;;25.30;35.70;;;;;;5021398;28;20470;-57
2021/11/10 10:58:45;;;;;;;4.93;4.43;;;25.30;35.70;;;;;;5012626;28;20464;-58
2021/11/10 11:01:24;;;;;;;4.68;4.28;;;25.40;35.80;;;;;;5013572;28;20072;-57
2021/11/10 11:04:02;;;;;;;7.40;4.80;;;25.40;35.80;;;;;;5020973;28;20527;-57
2021/11/10 11:06:40;;;;;;;6.45;5.03;;;25.40;35.80;;;;;;5019809;28;20103;-57
2021/11/10 11:09:29;;;;;;;5.53;4.97;;;25.40;35.70;;;;;;5008620;28;20133;-57
2021/11/10 11:12:22;;;;;;;5.82;4.70;;;25.40;35.80;;;;;;5040823;28;20049;-55
2021/11/10 11:15:14;;;;;;;5.60;3.53;;;25.40;35.70;;;;;;5019364;28;20049;-56
2021/11/10 11:17:45;;;;;;;5.43;4.68;;;25.40;35.60;;;;;;5010173;28;20107;-59
2021/11/10 11:20:19;;;;;;;5.07;4.57;;;25.40;35.50;;;;;;5005172;28;20114;-56
2021/11/10 11:22:55;;;;;;;7.70;4.30;;;25.40;35.50;;;;;;5019098;28;20974;-57
2021/11/10 11:25:34;;;;;;;5.68;4.88;;;25.40;35.40;;;;;;5008684;28;20073;-55
2021/11/10 11:28:09;;;;;;;6.15;5.10;;;25.40;35.40;;;;;;5009880;28;20045;-56
2021/11/10 11:30:44;;;;;;;5.68;4.82;;;25.40;35.50;;;;;;5004842;28;20646;-56
2021/11/10 11:33:17;;;;;;;5.93;5.13;;;25.40;35.50;;;;;;5017899;28;20068;-57
2021/11/10 11:35:47;;;;;;;5.25;4.78;;;25.40;35.60;;;;;;5018399;28;20072;-57
2021/11/10 11:38:20;;;;;;;8.02;5.00;;;25.40;35.60;;;;;;5014424;28;20053;-54
2021/11/10 11:40:50;;;;;;;5.70;4.75;;;25.40;35.50;;;;;;5012689;28;20126;-57
2021/11/10 11:43:20;;;;;;;7.03;5.53;;;25.40;35.50;;;;;;5026059;28;20044;-57
2021/11/10 11:45:50;;;;;;;5.70;5.20;;;25.40;35.50;;;;;;5019081;28;20114;-57
2021/11/10 11:48:19;;;;;;;6.97;5.82;;;25.40;35.50;;;;;;5017061;28;20056;-57
2021/11/10 11:50:48;;;;;;;7.07;6.38;;;25.40;35.50;;;;;;5014282;28;20049;-56
2021/11/10 11:53:16;;;;;;;9.50;5.75;;;25.40;35.50;;;;;;5016152;28;20057;-56
2021/11/10 11:55:48;;;;;;;6.35;5.72;;;25.40;35.50;;;;;;5022144;28;20057;-55
2021/11/10 11:58:21;;;;;;;7.55;6.60;;;25.50;35.40;;;;;;5009837;28;20467;-57
2021/11/10 12:00:53;;;;;;;6.35;5.75;;;25.50;35.30;;;;;;5007564;28;20115;-57
2021/11/10 12:03:30;;;;;;;8.00;6.70;;;25.50;35.10;;;;;;5016726;28;20060;-56
2021/11/10 12:06:19;;;;;;;6.43;5.82;;;25.50;35.20;;;;;;5018178;28;20055;-56
2021/11/10 12:08:49;;;;;;;7.05;6.35;;;25.50;35.20;;;;;;5011598;28;20588;-57
2021/11/10 12:11:37;;;;;;;7.25;6.57;;;25.60;35.30;;;;;;5005983;28;20751;-57
2021/11/10 12:14:11;;;;;;;8.02;7.07;;;25.60;35.30;;;;;;5012007;28;20103;-57
2021/11/10 12:16:55;;;;;;;6.65;5.90;;;25.60;35.30;;;;;;5016306;28;20119;-55
2021/11/10 12:19:34;;;;;;;7.20;6.57;;;25.60;35.30;;;;;;5006334;28;20053;-57
2021/11/10 12:22:15;;;;;;;7.88;7.07;;;25.60;35.20;;;;;;5007234;28;20148;-57
2021/11/10 12:24:57;;;;;;;8.77;7.13;;;25.60;35.20;;;;;;5013015;28;20041;-57
2021/11/10 12:27:40;;;;;;;7.55;6.75;;;25.60;35.20;;;;;;5015226;28;21134;-57
2021/11/10 12:30:17;;;;;;;7.30;6.60;;;25.60;35.20;;;;;;4997147;28;20115;-57
2021/11/10 12:32:55;;;;;;;8.45;6.85;;;25.60;35.10;;;;;;5015785;28;20756;-55
2021/11/10 12:35:44;;;;;;;8.25;7.47;;;25.60;35.10;;;;;;5016634;28;20052;-57
2021/11/10 12:38:21;;;;;;;8.88;7.97;;;25.60;35.20;;;;;;5003553;28;20056;-57
2021/11/10 12:40:54;;;;;;;9.07;7.75;;;25.60;35.40;;;;;;5010262;28;20103;-57
2021/11/10 12:43:24;;;;;;;8.55;7.25;;;25.60;35.50;;;;;;5017947;28;20053;-56
2021/11/10 12:45:54;;;;;;;;;;;25.60;35.60;;;;;;5012191;28;20049;-54
2021/11/10 12:48:34;;;;;;;9.68;7.65;;;25.50;35.60;;;;;;5006089;28;19967;-57
2021/11/10 12:51:28;;;;;;;26.48;8.02;;;25.50;35.60;;;;;;5004314;28;20095;-58
2021/11/10 12:53:59;;;;;;;9.32;8.43;;;25.50;35.50;;;;;;5010234;28;20103;-55
2021/11/10 12:56:46;;;;;;;8.55;7.65;;;25.50;35.50;;;;;;5011445;28;20104;-57